Time;durP1;ratioP1;P1;durP2;ratioP2;P2;SDS_P1;SDS_P2;PMS_P1;PMS_P2;Temp;Humidity;BMP_temperature;BMP_pressure;BME280_temperature;BME280_humidity;BME280_pressure;Samples;Min_cycle;Max_cycle;Signal;HPM_P1;HPM_P2
2022/07/18 00:00:47;;;;;;;1015.90;927.38;;;22.50;83.70;;;;;;5024241;28;20200;-79
2022/07/18 00:03:14;;;;;;;990.05;902.75;;;22.50;83.80;;;;;;5032813;28;20211;-80
2022/07/18 00:05:40;;;;;;;982.63;895.78;;;22.50;83.80;;;;;;5037434;28;20211;-79
2022/07/18 00:08:07;;;;;;;989.58;902.40;;;22.40;83.70;;;;;;5038176;28;20212;-79
2022/07/18 00:10:34;;;;;;;998.58;911.28;;;22.40;83.80;;;;;;5039337;28;20204;-79
2022/07/18 00:13:01;;;;;;;993.90;906.35;;;22.40;83.90;;;;;;5027094;28;20192;-79
2022/07/18 00:15:27;;;;;;;987.13;899.88;;;22.40;83.90;;;;;;5022229;28;20207;-79
2022/07/18 00:17:55;;;;;;;993.35;906.03;;;22.40;84.00;;;;;;5031909;28;20199;-79
2022/07/18 00:20:22;;;;;;;995.75;908.03;;;22.40;84.00;;;;;;5026221;28;20548;-79
2022/07/18 00:22:49;;;;;;;995.83;908.17;;;22.30;84.00;;;;;;5034478;28;20683;-78
2022/07/18 00:25:16;;;;;;;993.50;905.97;;;22.30;84.00;;;;;;5025548;28;20236;-79
2022/07/18 00:27:42;;;;;;;993.95;906.28;;;22.30;84.00;;;;;;5022565;28;20200;-79
2022/07/18 00:30:11;;;;;;;996.45;908.47;;;22.30;84.00;;;;;;5020163;28;20230;-79
2022/07/18 00:32:38;;;;;;;990.60;903.10;;;22.30;84.10;;;;;;5021402;28;20203;-79
2022/07/18 00:35:07;;;;;;;989.38;902.13;;;22.20;84.00;;;;;;5031782;28;20202;-78
2022/07/18 00:37:34;;;;;;;991.47;904.00;;;22.20;84.10;;;;;;5041756;28;20199;-78
2022/07/18 00:40:01;;;;;;;977.97;890.58;;;22.20;84.10;;;;;;5031363;28;20202;-79
2022/07/18 00:42:27;;;;;;;992.38;904.60;;;22.10;84.10;;;;;;5032856;28;20196;-79
2022/07/18 00:44:55;;;;;;;987.42;899.90;;;22.10;84.10;;;;;;5030457;28;20693;-79
2022/07/18 00:47:21;;;;;;;993.47;905.80;;;22.10;84.20;;;;;;5034278;28;20205;-79
2022/07/18 00:49:48;;;;;;;985.35;897.65;;;22.10;84.20;;;;;;5026289;28;20206;-80
2022/07/18 00:52:17;;;;;;;979.10;892.05;;;22.10;84.30;;;;;;5035996;28;20207;-80
2022/07/18 00:54:43;;;;;;;990.63;903.03;;;22.00;84.30;;;;;;5028049;28;20202;-83
2022/07/18 00:57:11;;;;;;;996.25;908.47;;;22.00;84.30;;;;;;5042195;28;20192;-82
2022/07/18 01:02:24;;;;;;;975.45;888.35;;;22.00;84.50;;;;;;5029586;28;20224;-83
2022/07/18 01:04:50;;;;;;;988.85;901.03;;;21.90;84.40;;;;;;5015972;28;20579;-82
2022/07/18 01:07:19;;;;;;;968.15;881.20;;;21.90;84.50;;;;;;5032654;28;20196;-82
2022/07/18 01:09:45;;;;;;;965.15;877.97;;;21.90;84.60;;;;;;5015800;28;20211;-83
2022/07/18 01:12:12;;;;;;;977.05;889.50;;;21.90;84.60;;;;;;5031153;28;20575;-83
2022/07/18 01:14:39;;;;;;;984.08;896.10;;;21.90;84.60;;;;;;5022924;28;20616;-82
2022/07/18 01:17:13;;;;;;;975.78;888.20;;;21.90;84.70;;;;;;5032285;28;21195;-83
2022/07/18 01:19:40;;;;;;;972.47;885.15;;;21.80;84.60;;;;;;5017068;28;20202;-83
2022/07/18 01:22:08;;;;;;;976.63;888.88;;;21.80;84.70;;;;;;5040369;28;20201;-82
2022/07/18 01:24:35;;;;;;;968.00;880.78;;;21.80;84.70;;;;;;5021882;28;20223;-83
2022/07/18 01:27:02;;;;;;;975.17;887.58;;;21.80;84.80;;;;;;5026330;28;20570;-83
2022/07/18 01:29:28;;;;;;;975.95;888.63;;;21.80;84.80;;;;;;5036161;28;20662;-83
2022/07/18 01:31:55;;;;;;;973.80;886.25;;;21.70;84.70;;;;;;5030901;28;20199;-82
2022/07/18 01:34:22;;;;;;;957.85;870.67;;;21.70;84.80;;;;;;5036636;28;20346;-83
2022/07/18 01:36:49;;;;;;;986.08;898.35;;;21.70;84.80;;;;;;5027195;28;20215;-83
2022/07/18 01:39:18;;;;;;;971.33;883.80;;;21.70;84.90;;;;;;5026593;28;20585;-83
2022/07/18 01:41:44;;;;;;;982.08;894.45;;;21.70;84.90;;;;;;5030280;28;21004;-82
2022/07/18 01:44:11;;;;;;;972.05;884.28;;;21.70;84.90;;;;;;5028828;28;20233;-83
2022/07/18 01:46:38;;;;;;;970.25;882.92;;;21.60;84.90;;;;;;5027743;28;20548;-82
2022/07/18 01:49:04;;;;;;;979.22;891.50;;;21.60;84.90;;;;;;5037794;28;20195;-83
2022/07/18 01:51:31;;;;;;;980.13;892.35;;;21.60;85.00;;;;;;5041566;28;20220;-83
2022/07/18 01:54:01;;;;;;;975.67;888.30;;;21.60;85.00;;;;;;5035805;28;20204;-84
2022/07/18 01:56:29;;;;;;;980.97;893.55;;;21.60;85.00;;;;;;5032728;28;20202;-82
2022/07/18 01:58:56;;;;;;;980.53;892.67;;;21.50;85.00;;;;;;5039035;28;20567;-82
2022/07/18 02:01:23;;;;;;;977.08;889.72;;;21.50;85.00;;;;;;5013380;28;20205;-82
2022/07/18 02:03:50;;;;;;;967.10;880.03;;;21.50;85.10;;;;;;5027435;28;20210;-82
2022/07/18 02:06:16;;;;;;;974.17;886.83;;;21.50;85.20;;;;;;5031444;28;20201;-83
2022/07/18 02:08:43;;;;;;;954.75;867.95;;;21.50;85.30;;;;;;5036255;28;20216;-83
2022/07/18 02:11:10;;;;;;;960.78;873.80;;;21.50;85.30;;;;;;5032414;28;20191;-82
2022/07/18 02:13:38;;;;;;;972.15;884.78;;;21.50;85.40;;;;;;5034448;28;20676;-82
2022/07/18 02:16:06;;;;;;;958.05;870.85;;;21.40;85.30;;;;;;5022417;28;20221;-82
2022/07/18 02:18:33;;;;;;;967.28;880.10;;;21.40;85.30;;;;;;5036670;28;20213;-81
2022/07/18 02:21:00;;;;;;;978.05;890.17;;;21.40;85.40;;;;;;5034443;28;20212;-82
2022/07/18 02:23:27;;;;;;;971.25;883.85;;;21.40;85.50;;;;;;5034562;28;20567;-81
2022/07/18 02:25:54;;;;;;;955.67;869.13;;;21.40;85.60;;;;;;5028534;28;20232;-81
2022/07/18 02:28:21;;;;;;;963.42;876.20;;;21.30;85.50;;;;;;5049285;28;20197;-82
2022/07/18 02:30:49;;;;;;;961.45;874.60;;;21.30;85.60;;;;;;5034091;28;20683;-82
2022/07/18 02:33:16;;;;;;;946.92;860.83;;;21.30;85.70;;;;;;5017789;28;20199;-82
2022/07/18 02:35:44;;;;;;;945.30;859.28;;;21.30;85.80;;;;;;5031455;28;20221;-83
2022/07/18 02:38:12;;;;;;;937.00;851.63;;;21.30;85.90;;;;;;5045796;28;20284;-82
2022/07/18 02:40:38;;;;;;;955.30;868.80;;;21.20;85.90;;;;;;5048123;28;20210;-82
2022/07/18 02:43:05;;;;;;;944.95;858.42;;;21.20;86.00;;;;;;5018479;28;20195;-84
2022/07/18 02:45:32;;;;;;;943.25;857.05;;;21.20;86.00;;;;;;5027593;28;20227;-77
2022/07/18 02:48:00;;;;;;;944.65;858.50;;;21.20;86.20;;;;;;5022338;28;20201;-78
2022/07/18 02:50:27;;;;;;;942.35;856.13;;;21.20;86.30;;;;;;5031767;28;20203;-84
2022/07/18 02:52:56;;;;;;;953.13;866.63;;;21.20;86.30;;;;;;5034382;28;20195;-84
2022/07/18 02:55:23;;;;;;;932.42;846.47;;;21.10;86.30;;;;;;5048323;28;20201;-84
2022/07/18 02:57:50;;;;;;;932.78;846.65;;;21.10;86.40;;;;;;5054013;28;20578;-84
2022/07/18 03:00:18;;;;;;;937.05;851.15;;;21.10;86.50;;;;;;5022370;28;20214;-87
2022/07/18 03:02:46;;;;;;;940.30;854.10;;;21.10;86.60;;;;;;5023272;28;20717;-86
2022/07/18 03:05:14;;;;;;;944.45;858.22;;;21.10;86.70;;;;;;5023055;28;20218;-86
2022/07/18 03:07:41;;;;;;;937.78;851.75;;;21.10;86.80;;;;;;5040881;28;20201;-86
2022/07/18 03:10:08;;;;;;;950.85;864.10;;;21.10;86.90;;;;;;5047952;28;20232;-85
2022/07/18 03:12:35;;;;;;;942.35;856.13;;;21.00;86.80;;;;;;5015766;28;20259;-83
2022/07/18 03:15:02;;;;;;;949.70;863.20;;;21.00;86.90;;;;;;5035536;28;20285;-83
2022/07/18 03:17:29;;;;;;;935.88;849.83;;;21.00;87.10;;;;;;5028638;28;20217;-84
2022/07/18 03:19:55;;;;;;;946.40;860.17;;;21.00;87.00;;;;;;5037466;28;20671;-85
2022/07/18 03:22:23;;;;;;;931.42;845.53;;;21.00;87.10;;;;;;5018028;28;20225;-79
2022/07/18 03:24:50;;;;;;;941.22;855.13;;;20.90;87.10;;;;;;5027096;28;20714;-80
2022/07/18 03:27:17;;;;;;;931.50;845.35;;;20.90;87.10;;;;;;5046300;28;20199;-80
2022/07/18 03:29:43;;;;;;;924.05;838.22;;;20.90;87.30;;;;;;5043155;28;20653;-80
2022/07/18 03:32:10;;;;;;;934.90;851.67;;;20.90;87.30;;;;;;5027253;28;20543;-80
2022/07/18 03:34:37;;;;;;;941.33;855.13;;;20.90;87.40;;;;;;5040716;28;20666;-80
2022/07/18 03:37:03;;;;;;;938.10;852.00;;;20.90;88.30;;;;;;5054238;28;20205;-80
2022/07/18 03:39:31;;;;;;;922.05;836.40;;;20.90;87.60;;;;;;5028785;28;20560;-80
2022/07/18 03:41:58;;;;;;;925.83;840.05;;;20.80;87.60;;;;;;5039243;28;20200;-80
2022/07/18 03:44:25;;;;;;;924.85;839.33;;;20.80;87.70;;;;;;5030619;28;20193;-80
2022/07/18 03:46:53;;;;;;;927.58;841.63;;;20.80;87.80;;;;;;5030205;28;20549;-80
2022/07/18 03:49:20;;;;;;;929.65;843.78;;;20.80;87.90;;;;;;5034423;28;20567;-80
2022/07/18 03:51:47;;;;;;;912.17;826.90;;;20.80;87.90;;;;;;5047901;28;20566;-79
2022/07/18 03:54:14;;;;;;;917.08;831.95;;;20.70;87.90;;;;;;5032709;28;20209;-79
2022/07/18 03:56:42;;;;;;;908.22;823.00;;;20.70;88.10;;;;;;5025025;28;20204;-79
2022/07/18 03:59:09;;;;;;;921.05;835.20;;;20.70;88.10;;;;;;5017097;28;20649;-79
2022/07/18 04:01:35;;;;;;;922.40;836.65;;;20.70;88.10;;;;;;5033382;28;20575;-79
2022/07/18 04:04:02;;;;;;;896.13;811.42;;;20.70;88.20;;;;;;5022662;28;20208;-79
2022/07/18 04:06:29;;;;;;;915.78;830.55;;;20.70;88.20;;;;;;5044475;28;20220;-79
2022/07/18 04:08:56;;;;;;;926.65;840.70;;;20.70;88.30;;;;;;5040441;28;20201;-82
2022/07/18 04:11:23;;;;;;;923.40;837.60;;;20.70;88.30;;;;;;5037200;28;20189;-82
2022/07/18 04:13:52;;;;;;;918.55;833.22;;;20.70;88.40;;;;;;5039510;28;20190;-81
2022/07/18 04:16:18;;;;;;;913.63;828.40;;;20.60;88.40;;;;;;5025963;28;20196;-81
2022/07/18 04:18:45;;;;;;;909.65;824.33;;;20.60;88.40;;;;;;5030338;28;20214;-81
2022/07/18 04:21:12;;;;;;;932.97;847.42;;;20.60;88.50;;;;;;5039768;28;20199;-81
2022/07/18 04:23:39;;;;;;;920.20;834.72;;;20.60;88.60;;;;;;5024916;28;20219;-81
2022/07/18 04:26:06;;;;;;;921.63;835.95;;;20.60;88.60;;;;;;5033384;28;20220;-81
2022/07/18 04:28:33;;;;;;;912.92;827.58;;;20.60;88.80;;;;;;5019891;28;20204;-81
2022/07/18 04:31:01;;;;;;;919.35;833.70;;;20.60;88.90;;;;;;5019132;28;20227;-82
2022/07/18 04:33:28;;;;;;;902.45;817.45;;;20.60;88.90;;;;;;5026979;28;20292;-80
2022/07/18 04:35:55;;;;;;;908.75;823.30;;;20.50;88.90;;;;;;5025867;28;20669;-80
2022/07/18 04:38:22;;;;;;;917.85;832.22;;;20.50;88.90;;;;;;5035514;28;20291;-81
2022/07/18 04:40:49;;;;;;;909.88;824.78;;;20.50;88.90;;;;;;5018723;28;20207;-81
2022/07/18 04:43:15;;;;;;;909.83;824.47;;;20.50;89.00;;;;;;5030656;28;20199;-80
2022/07/18 04:45:42;;;;;;;903.70;818.72;;;20.50;89.10;;;;;;5029260;28;20211;-80
2022/07/18 04:48:10;;;;;;;911.55;826.40;;;20.50;89.10;;;;;;5029085;28;20195;-81
2022/07/18 04:50:37;;;;;;;898.80;814.00;;;20.50;89.10;;;;;;5047368;28;20200;-80
2022/07/18 04:53:04;;;;;;;895.78;811.28;;;20.50;89.00;;;;;;5021355;28;20208;-80
2022/07/18 04:55:30;;;;;;;909.63;824.55;;;20.50;89.10;;;;;;5031352;28;20220;-80
2022/07/18 04:57:57;;;;;;;906.40;821.33;;;20.50;89.10;;;;;;5033530;28;20207;-80
2022/07/18 05:00:26;;;;;;;887.50;802.58;;;20.50;89.00;;;;;;5029366;28;20214;-80
2022/07/18 05:02:56;;;;;;;914.42;828.63;;;20.50;89.00;;;;;;5024592;28;20583;-80
2022/07/18 05:05:24;;;;;;;903.63;818.05;;;20.50;89.00;;;;;;5031882;28;20225;-80
2022/07/18 05:07:51;;;;;;;916.75;830.95;;;20.50;89.00;;;;;;5035563;28;20217;-79
2022/07/18 05:10:20;;;;;;;909.05;823.50;;;20.50;89.00;;;;;;5033349;28;20257;-79
2022/07/18 05:12:50;;;;;;;913.15;827.35;;;20.50;89.00;;;;;;5043383;28;20198;-81
2022/07/18 05:15:19;;;;;;;925.15;838.80;;;20.50;89.00;;;;;;5019972;28;20254;-79
2022/07/18 05:17:46;;;;;;;905.63;820.15;;;20.50;88.90;;;;;;5040420;28;20202;-79
2022/07/18 05:20:16;;;;;;;917.45;831.47;;;20.50;88.90;;;;;;5016439;28;20195;-79
2022/07/18 05:22:45;;;;;;;909.03;823.17;;;20.50;88.90;;;;;;5029738;28;20667;-80
2022/07/18 05:25:12;;;;;;;907.42;821.75;;;20.40;88.70;;;;;;5019068;28;20275;-79
2022/07/18 05:27:40;;;;;;;890.35;805.53;;;20.50;88.70;;;;;;5032293;28;20225;-79
2022/07/18 05:30:09;;;;;;;911.75;826.08;;;20.50;88.70;;;;;;5012487;28;20204;-80
2022/07/18 05:32:37;;;;;;;913.25;827.58;;;20.50;89.30;;;;;;5038644;28;20649;-80
2022/07/18 05:35:04;;;;;;;927.80;841.70;;;20.50;88.50;;;;;;5038899;28;20202;-80
2022/07/18 05:37:31;;;;;;;897.80;812.72;;;20.50;88.20;;;;;;5038365;28;20206;-79
2022/07/18 05:39:59;;;;;;;907.90;822.55;;;20.50;88.10;;;;;;5029688;28;20198;-79
2022/07/18 05:42:26;;;;;;;898.20;812.97;;;20.60;87.90;;;;;;5026908;28;20188;-80
2022/07/18 05:44:53;;;;;;;904.83;819.47;;;20.70;87.70;;;;;;5015804;28;20581;-80
2022/07/18 05:47:20;;;;;;;937.70;851.42;;;20.80;87.70;;;;;;5037337;28;20670;-79
2022/07/18 05:49:46;;;;;;;936.03;849.72;;;21.00;87.10;;;;;;5034607;28;20205;-79
2022/07/18 05:52:13;;;;;;;937.47;851.10;;;21.30;86.60;;;;;;5038617;28;20203;-79
2022/07/18 05:54:40;;;;;;;943.63;857.13;;;21.50;85.80;;;;;;5022084;28;20210;-78
2022/07/18 05:57:08;;;;;;;953.88;867.10;;;21.80;85.10;;;;;;5038715;28;20792;-83
2022/07/18 05:59:35;;;;;;;959.63;872.75;;;22.00;84.30;;;;;;5031552;28;20270;-83
2022/07/18 06:02:02;;;;;;;955.88;869.58;;;22.20;83.80;;;;;;5024139;28;20208;-84
2022/07/18 06:04:29;;;;;;;974.30;887.42;;;22.30;83.10;;;;;;5020680;28;20682;-84
2022/07/18 06:06:55;;;;;;;973.90;887.33;;;22.40;82.60;;;;;;5030902;28;20298;-83
2022/07/18 06:09:22;;;;;;;992.65;905.22;;;22.60;82.20;;;;;;5024507;28;20195;-84
2022/07/18 06:11:49;;;;;;;977.22;890.20;;;22.70;82.60;;;;;;5029722;28;20204;-84
2022/07/18 06:14:17;;;;;;;1003.30;915.20;;;22.80;81.20;;;;;;5032879;28;20207;-84
2022/07/18 06:16:44;;;;;;;1008.80;920.13;;;23.00;80.90;;;;;;5019070;28;20193;-84
2022/07/18 06:19:11;;;;;;;1009.92;921.47;;;23.10;80.60;;;;;;5043578;28;20199;-84
2022/07/18 06:21:37;;;;;;;1028.20;939.28;;;23.20;80.30;;;;;;5052298;28;20191;-85
2022/07/18 06:24:05;;;;;;;1022.28;933.38;;;23.30;80.00;;;;;;5036267;28;20199;-84
2022/07/18 06:26:32;;;;;;;1020.40;931.72;;;23.40;79.70;;;;;;5035511;28;20215;-85
2022/07/18 06:28:59;;;;;;;1033.95;944.83;;;23.50;79.30;;;;;;5052172;28;20686;-84
2022/07/18 06:31:27;;;;;;;1035.07;946.30;;;23.60;79.00;;;;;;5019106;28;20295;-81
2022/07/18 06:33:55;;;;;;;1022.25;934.30;;;23.70;78.90;;;;;;5043985;28;20226;-80
2022/07/18 06:36:23;;;;;;;1022.75;934.97;;;23.60;78.60;;;;;;5037001;28;20207;-83
2022/07/18 06:38:50;;;;;;;1020.35;932.72;;;23.70;78.50;;;;;;5021537;28;20726;-83
2022/07/18 06:41:17;;;;;;;1027.82;939.88;;;23.70;78.40;;;;;;5031659;28;20202;-83
2022/07/18 06:43:43;;;;;;;1036.28;948.13;;;23.70;78.60;;;;;;5032767;28;20223;-87
2022/07/18 06:46:10;;;;;;;1028.38;940.42;;;23.60;78.80;;;;;;5028803;28;20216;-85
2022/07/18 06:48:39;;;;;;;1027.75;940.17;;;23.50;79.00;;;;;;5036574;28;20201;-84
2022/07/18 06:51:06;;;;;;;1017.28;929.97;;;23.50;79.30;;;;;;5020329;28;20232;-84
2022/07/18 06:53:33;;;;;;;1023.47;935.75;;;23.50;79.30;;;;;;5038515;28;20208;-84
2022/07/18 06:56:02;;;;;;;1025.70;938.05;;;23.60;79.20;;;;;;5038840;28;20559;-86
2022/07/18 06:58:30;;;;;;;1039.22;950.88;;;23.70;79.10;;;;;;5040672;28;20250;-85
2022/07/18 07:00:57;;;;;;;1040.03;951.88;;;23.80;78.70;;;;;;5022494;28;20207;-86
2022/07/18 07:03:24;;;;;;;1037.50;949.03;;;24.00;78.10;;;;;;5023765;28;20911;-83
2022/07/18 07:05:52;;;;;;;1067.80;977.70;;;24.20;77.80;;;;;;5025491;28;20223;-78
2022/07/18 07:08:19;;;;;;;1049.65;960.63;;;24.40;77.30;;;;;;5027336;28;20193;-79
2022/07/18 07:10:45;;;;;;;1077.70;987.38;;;24.60;77.00;;;;;;5024089;28;20582;-82
2022/07/18 07:13:12;;;;;;;1068.50;978.65;;;24.70;76.50;;;;;;5046651;28;20666;-79
2022/07/18 07:15:40;;;;;;;1078.15;988.05;;;24.80;76.20;;;;;;5024377;28;20200;-80
2022/07/18 07:18:07;;;;;;;1087.60;994.45;;;24.90;75.90;;;;;;5040872;28;20227;-79
2022/07/18 07:20:34;;;;;;;1102.00;999.67;;;25.00;75.70;;;;;;5030470;28;20199;-80
2022/07/18 07:23:07;;;;;;;1098.45;998.83;;;25.10;75.40;;;;;;5040328;28;20194;-79
2022/07/18 07:25:34;;;;;;;1096.13;998.33;;;25.20;75.30;;;;;;5026524;28;20226;-80
2022/07/18 07:28:01;;;;;;;1100.95;999.38;;;25.30;74.90;;;;;;5037808;28;20211;-80
2022/07/18 07:30:28;;;;;;;1086.40;994.95;;;25.40;74.60;;;;;;5027100;28;20203;-80
2022/07/18 07:32:55;;;;;;;1103.30;999.90;;;25.50;74.40;;;;;;5052544;28;20517;-79
2022/07/18 07:35:22;;;;;;;1097.93;998.60;;;25.50;74.00;;;;;;5014568;28;20208;-80
2022/07/18 07:37:51;;;;;;;1120.35;999.90;;;25.70;74.00;;;;;;5019924;28;20204;-80
2022/07/18 07:40:20;;;;;;;1113.15;999.90;;;25.70;73.90;;;;;;5039524;28;20203;-79
2022/07/18 07:42:47;;;;;;;1109.70;999.90;;;25.70;73.70;;;;;;5045636;28;20554;-79
2022/07/18 07:45:14;;;;;;;1100.72;999.90;;;25.70;73.70;;;;;;5027835;28;20199;-79
2022/07/18 07:47:41;;;;;;;1112.32;999.90;;;25.70;73.70;;;;;;5032456;28;20236;-79
2022/07/18 07:50:10;;;;;;;1105.25;999.90;;;25.70;73.70;;;;;;5034504;28;20211;-80
2022/07/18 07:52:37;;;;;;;1098.57;999.65;;;25.70;73.70;;;;;;5014149;28;20204;-79
2022/07/18 07:55:04;;;;;;;1098.70;999.08;;;25.70;73.80;;;;;;5030109;28;20554;-80
2022/07/18 07:57:35;;;;;;;1104.60;999.90;;;25.70;73.70;;;;;;5032931;28;20194;-80
2022/07/18 08:00:04;;;;;;;1114.85;999.90;;;25.70;73.70;;;;;;5021594;28;20209;-80
2022/07/18 08:02:31;;;;;;;1107.55;999.90;;;25.80;73.70;;;;;;5031814;28;20247;-80
2022/07/18 08:04:57;;;;;;;1118.10;999.90;;;25.90;73.30;;;;;;5024473;28;20662;-78
2022/07/18 08:07:24;;;;;;;1101.55;999.58;;;26.00;73.00;;;;;;5048590;28;20709;-79
2022/07/18 08:09:51;;;;;;;1116.55;999.90;;;26.10;72.70;;;;;;5035856;28;20197;-78
2022/07/18 08:12:18;;;;;;;1112.22;999.90;;;26.20;72.10;;;;;;5020390;28;20192;-79
2022/07/18 08:14:46;;;;;;;1115.65;999.90;;;26.30;71.70;;;;;;5032315;28;20205;-78
2022/07/18 08:17:13;;;;;;;1122.80;999.90;;;26.40;71.50;;;;;;5028752;28;20523;-78
2022/07/18 08:19:39;;;;;;;1116.57;999.90;;;26.50;71.30;;;;;;5036255;28;20188;-77
2022/07/18 08:22:06;;;;;;;1132.70;999.90;;;26.50;71.10;;;;;;5033462;28;20298;-78
2022/07/18 08:24:33;;;;;;;1132.65;999.90;;;26.50;70.80;;;;;;5024617;28;20209;-78
2022/07/18 08:26:59;;;;;;;1124.80;999.90;;;26.50;72.10;;;;;;5039947;28;20575;-77
2022/07/18 08:29:26;;;;;;;1117.53;999.90;;;26.50;71.10;;;;;;5023182;28;20207;-79
2022/07/18 08:31:54;;;;;;;1140.45;999.90;;;26.50;71.00;;;;;;5018755;28;20197;-77
2022/07/18 08:34:21;;;;;;;1134.68;999.90;;;26.60;71.10;;;;;;5024554;28;20195;-78
2022/07/18 08:36:48;;;;;;;1150.97;999.90;;;26.60;70.70;;;;;;5039319;28;20207;-78
2022/07/18 08:39:14;;;;;;;1138.32;999.90;;;26.60;70.90;;;;;;5035700;28;20652;-78
2022/07/18 08:41:46;;;;;;;1136.30;999.90;;;26.60;70.50;;;;;;5040633;28;20226;-77
2022/07/18 08:44:13;;;;;;;1123.15;999.90;;;26.70;70.10;;;;;;5029485;28;20199;-77
2022/07/18 08:46:41;;;;;;;1138.03;999.90;;;26.70;69.80;;;;;;5035068;28;20226;-78
2022/07/18 08:49:09;;;;;;;1141.47;999.90;;;26.80;69.90;;;;;;5031400;28;20207;-78
2022/07/18 08:51:36;;;;;;;1143.57;999.90;;;26.80;70.20;;;;;;5019427;28;20204;-79
2022/07/18 08:54:03;;;;;;;1154.50;999.90;;;26.80;69.70;;;;;;5035399;28;20555;-79
2022/07/18 08:56:30;;;;;;;1162.85;999.90;;;26.80;69.30;;;;;;5037622;28;20628;-80
2022/07/18 08:58:57;;;;;;;1141.93;999.90;;;26.90;69.70;;;;;;5019867;28;20200;-79
2022/07/18 09:01:23;;;;;;;1144.88;999.90;;;26.90;69.30;;;;;;5025541;28;20695;-80
2022/07/18 09:04:14;;;;;;;1151.15;999.90;;;26.90;69.20;;;;;;5022135;28;20196;-78
2022/07/18 09:06:46;;;;;;;1155.82;999.90;;;26.90;69.20;;;;;;5036287;28;20217;-80
2022/07/18 09:09:14;;;;;;;1144.95;999.90;;;26.90;69.20;;;;;;5023404;28;20192;-81
2022/07/18 09:11:52;;;;;;;1149.40;999.90;;;26.90;69.20;;;;;;5013743;28;20211;-79
2022/07/18 09:14:29;;;;;;;1152.25;999.90;;;27.00;69.40;;;;;;5032603;28;20247;-80
2022/07/18 09:17:05;;;;;;;1150.15;999.90;;;27.00;69.20;;;;;;5021718;28;20688;-78
2022/07/18 09:19:31;;;;;;;1144.45;999.90;;;27.00;68.60;;;;;;5031931;28;20205;-80
2022/07/18 09:22:17;;;;;;;1162.03;999.90;;;27.00;68.30;;;;;;5051946;28;20190;-79
2022/07/18 09:24:59;;;;;;;1156.38;999.90;;;27.00;68.70;;;;;;5028276;28;20579;-81
2022/07/18 09:27:34;;;;;;;1139.00;999.90;;;27.00;68.80;;;;;;5029825;28;20670;-79
2022/07/18 09:30:23;;;;;;;1160.97;999.90;;;27.00;68.20;;;;;;5034880;28;20199;-80
2022/07/18 09:32:52;;;;;;;1162.95;999.90;;;27.00;68.20;;;;;;5028000;28;20196;-80
2022/07/18 09:35:22;;;;;;;1161.32;999.90;;;27.10;67.20;;;;;;5036386;28;20206;-80
2022/07/18 09:37:59;;;;;;;1149.80;999.90;;;27.10;67.30;;;;;;5040027;28;20659;-79
2022/07/18 09:40:29;;;;;;;1155.20;999.90;;;27.10;66.60;;;;;;5033212;28;20649;-78
2022/07/18 09:42:58;;;;;;;1165.47;999.90;;;27.10;66.60;;;;;;5044033;28;20450;-80
2022/07/18 09:45:27;;;;;;;1160.60;999.90;;;27.10;65.90;;;;;;5029538;28;20541;-80
2022/07/18 09:47:56;;;;;;;1144.10;999.90;;;27.20;66.30;;;;;;5039434;28;20481;-80
2022/07/18 09:50:26;;;;;;;1156.35;999.90;;;27.20;66.40;;;;;;5012619;28;20200;-80
2022/07/18 09:53:06;;;;;;;1148.60;999.90;;;27.20;65.60;;;;;;5019980;28;20195;-80
2022/07/18 09:55:34;;;;;;;1151.75;999.90;;;27.20;66.00;;;;;;5039400;28;20461;-80
2022/07/18 09:58:04;;;;;;;1163.60;999.90;;;27.10;65.80;;;;;;5017141;28;20195;-81
2022/07/18 10:00:33;;;;;;;1156.45;999.90;;;27.10;66.10;;;;;;5027801;28;20488;-78
2022/07/18 10:03:01;;;;;;;1158.83;999.90;;;27.10;66.80;;;;;;5020788;28;20227;-81
2022/07/18 10:05:30;;;;;;;1156.70;999.90;;;27.10;66.20;;;;;;5029829;28;20530;-78
2022/07/18 10:08:02;;;;;;;1142.70;999.90;;;27.10;66.60;;;;;;5040646;28;20211;-76
2022/07/18 10:10:29;;;;;;;1146.53;999.90;;;27.20;65.60;;;;;;5044107;28;20216;-80
2022/07/18 10:13:00;;;;;;;1156.27;999.90;;;27.10;65.20;;;;;;5030651;28;20196;-80
2022/07/18 10:15:28;;;;;;;1145.73;999.90;;;27.20;65.30;;;;;;5044187;28;20460;-79
2022/07/18 10:17:55;;;;;;;1144.67;999.90;;;27.20;64.70;;;;;;5028143;28;20436;-80
2022/07/18 10:20:28;;;;;;;1138.25;999.90;;;27.10;66.10;;;;;;5015903;28;20453;-81
2022/07/18 10:22:59;;;;;;;1147.63;999.90;;;27.20;65.50;;;;;;5028645;28;20202;-80
2022/07/18 10:25:27;;;;;;;1146.77;999.90;;;27.10;65.40;;;;;;5026724;28;20192;-80
2022/07/18 10:27:55;;;;;;;1149.70;999.90;;;27.10;65.50;;;;;;5041034;28;20478;-80
2022/07/18 10:30:33;;;;;;;1141.73;999.90;;;27.10;65.40;;;;;;5036994;28;20466;-81
2022/07/18 10:33:01;;;;;;;1132.77;999.90;;;27.10;65.10;;;;;;5032687;28;20461;-81
2022/07/18 10:36:00;;;;;;;1133.57;999.90;;;27.10;64.90;;;;;;5042563;28;21003;-80
2022/07/18 10:38:28;;;;;;;1133.47;999.90;;;27.20;65.30;;;;;;5022382;28;20460;-80
2022/07/18 10:41:12;;;;;;;1130.57;999.90;;;27.10;65.10;;;;;;5050315;28;20438;-84
2022/07/18 10:43:48;;;;;;;1132.03;999.90;;;27.10;65.40;;;;;;5040212;28;20983;-80
2022/07/18 10:46:15;;;;;;;1124.80;999.90;;;27.10;65.50;;;;;;5036269;28;20962;-80
2022/07/18 10:48:53;;;;;;;1129.87;999.90;;;27.10;65.30;;;;;;5012598;28;20483;-81
2022/07/18 10:51:20;;;;;;;1128.93;999.90;;;27.10;64.80;;;;;;5022373;28;20441;-80
2022/07/18 10:53:59;;;;;;;1125.23;999.90;;;27.20;65.30;;;;;;5029372;28;20469;-80
2022/07/18 10:56:59;;;;;;;1131.77;999.90;;;27.10;65.50;;;;;;5046838;28;20440;-79
2022/07/18 10:59:28;;;;;;;1123.00;999.90;;;27.10;64.80;;;;;;5034383;28;20467;-80
2022/07/18 11:01:56;;;;;;;1114.20;999.90;;;27.10;65.10;;;;;;5027777;28;20482;-81
2022/07/18 11:04:24;;;;;;;1114.97;999.90;;;27.10;65.00;;;;;;5021345;28;20818;-81
2022/07/18 11:06:55;;;;;;;1125.13;999.90;;;27.10;64.90;;;;;;5022483;28;20469;-82
2022/07/18 11:09:37;;;;;;;1119.80;999.90;;;27.20;65.90;;;;;;5035533;28;20453;-79
2022/07/18 11:12:25;;;;;;;1116.47;999.90;;;27.20;64.30;;;;;;5026772;28;20516;-80
2022/07/18 11:15:10;;;;;;;1125.97;999.90;;;27.20;64.60;;;;;;5017214;28;20581;-81
2022/07/18 11:18:01;;;;;;;1125.37;999.90;;;27.20;64.90;;;;;;5037832;28;20487;-80
2022/07/18 11:20:30;;;;;;;1117.07;999.90;;;27.20;64.60;;;;;;5032595;28;21072;-84
2022/07/18 11:22:57;;;;;;;1107.43;999.90;;;27.20;64.30;;;;;;5040214;28;20457;-80
2022/07/18 11:25:30;;;;;;;1120.40;999.90;;;27.20;64.30;;;;;;5029836;28;20960;-83
2022/07/18 11:27:57;;;;;;;1107.47;999.90;;;27.20;64.50;;;;;;5044702;28;20477;-82
2022/07/18 11:30:25;;;;;;;1126.27;999.90;;;27.20;64.50;;;;;;5023477;28;20973;-81
2022/07/18 11:32:52;;;;;;;1119.10;999.90;;;27.30;64.30;;;;;;5035267;28;20448;-80
2022/07/18 11:35:23;;;;;;;1124.73;999.90;;;27.30;64.30;;;;;;5027138;28;20470;-84
2022/07/18 11:37:51;;;;;;;1123.60;999.90;;;27.30;64.00;;;;;;5033620;28;20925;-81
2022/07/18 11:40:18;;;;;;;1125.10;999.90;;;27.30;64.30;;;;;;5028017;28;20984;-80
2022/07/18 11:42:46;;;;;;;1134.30;999.90;;;27.30;64.00;;;;;;5034153;28;20438;-81
2022/07/18 11:45:15;;;;;;;1130.00;999.90;;;27.30;64.30;;;;;;5027091;28;20516;-81
2022/07/18 11:47:47;;;;;;;1119.60;999.90;;;27.30;64.30;;;;;;5039891;28;20840;-81
2022/07/18 11:50:14;;;;;;;1125.40;999.90;;;27.30;64.30;;;;;;5028570;28;20815;-81
2022/07/18 11:52:41;;;;;;;1136.10;999.90;;;27.20;63.90;;;;;;5040225;28;20446;-81
2022/07/18 11:55:09;;;;;;;1136.10;999.90;;;27.20;63.60;;;;;;5026762;28;20464;-81
2022/07/18 11:57:35;;;;;;;1124.13;999.90;;;27.30;63.90;;;;;;5040071;28;20464;-81
2022/07/18 12:00:15;;;;;;;1141.10;999.90;;;27.30;63.30;;;;;;5040335;28;20476;-81
2022/07/18 12:02:42;;;;;;;1126.53;999.90;;;27.20;63.40;;;;;;5032686;28;20486;-79
2022/07/18 12:05:09;;;;;;;1123.57;999.90;;;27.20;63.50;;;;;;5029641;28;20469;-82
2022/07/18 12:07:35;;;;;;;1136.10;999.90;;;27.20;63.20;;;;;;5040857;28;20489;-78
2022/07/18 12:10:16;;;;;;;1129.20;999.90;;;27.20;63.70;;;;;;5033485;28;20449;-81
2022/07/18 12:12:43;;;;;;;1121.15;999.90;;;27.20;63.70;;;;;;5039203;28;20446;-81